createdAt,value
2017-11-18T00:00:09.360Z,24.83
2017-11-18T00:00:22.533Z,24.82
2017-11-18T00:00:35.675Z,24.86
2017-11-18T00:00:48.776Z,24.82
2017-11-18T00:01:01.873Z,24.85
2017-11-18T00:01:14.544Z,24.87
2017-11-18T00:01:27.733Z,24.82
2017-11-18T00:01:40.829Z,24.8
2017-11-18T00:01:54.004Z,24.85
2017-11-18T00:02:07.176Z,24.82
2017-11-18T00:02:19.820Z,24.85
2017-11-18T00:02:32.976Z,24.8
2017-11-18T00:02:46.055Z,24.8
2017-11-18T00:02:59.184Z,24.77
2017-11-18T00:03:12.331Z,24.77
2017-11-18T00:03:25.402Z,24.75
2017-11-18T00:03:38.526Z,24.7
2017-11-18T00:03:51.724Z,24.77
2017-11-18T00:04:04.405Z,24.74
2017-11-18T00:04:17.110Z,24.75
2017-11-18T00:04:30.471Z,24.75
2017-11-18T00:04:43.187Z,24.7
2017-11-18T00:04:56.336Z,24.7
2017-11-18T00:05:09.458Z,24.78
2017-11-18T00:05:22.604Z,24.58
2017-11-18T00:05:35.706Z,24.67
2017-11-18T00:05:48.832Z,24.77
2017-11-18T00:06:01.996Z,24.7
2017-11-18T00:06:15.091Z,24.71
2017-11-18T00:06:28.224Z,24.78
2017-11-18T00:06:41.315Z,24.75
2017-11-18T00:06:54.469Z,24.78
2017-11-18T00:07:07.563Z,24.85
2017-11-18T00:07:20.197Z,24.75
2017-11-18T00:07:33.314Z,24.75
2017-11-18T00:07:45.973Z,24.74
2017-11-18T00:07:59.114Z,24.67
2017-11-18T00:08:12.244Z,24.7
2017-11-18T00:08:25.413Z,24.77
2017-11-18T00:08:38.106Z,24.71
2017-11-18T00:08:51.171Z,24.74
2017-11-18T00:09:04.472Z,24.74
2017-11-18T00:09:17.610Z,24.75
2017-11-18T00:09:31.034Z,24.78
2017-11-18T00:09:43.194Z,24.71
2017-11-18T00:09:56.383Z,24.7
2017-11-18T00:10:09.525Z,24.7
2017-11-18T00:10:22.666Z,24.77
2017-11-18T00:10:35.292Z,24.8
2017-11-18T00:10:47.937Z,24.83
2017-11-18T00:11:00.617Z,24.77
2017-11-18T00:11:13.750Z,24.83
2017-11-18T00:11:26.833Z,24.74
2017-11-18T00:11:39.977Z,24.74
2017-11-18T00:11:53.090Z,24.78
2017-11-18T00:12:06.236Z,24.8
2017-11-18T00:12:18.907Z,24.83
2017-11-18T00:12:32.046Z,24.78
2017-11-18T00:12:45.244Z,24.85
2017-11-18T00:12:58.399Z,24.78
2017-11-18T00:13:11.557Z,24.87
2017-11-18T00:13:24.184Z,24.8
2017-11-18T00:13:37.329Z,24.89
2017-11-18T00:13:50.439Z,24.87
2017-11-18T00:14:03.513Z,24.74
2017-11-18T00:14:16.656Z,24.85
2017-11-18T00:14:30.026Z,24.83
2017-11-18T00:14:43.335Z,24.83
2017-11-18T00:14:56.441Z,24.7
2017-11-18T00:15:09.637Z,24.7
2017-11-18T00:15:22.791Z,24.66
2017-11-18T00:15:35.472Z,24.69
2017-11-18T00:15:48.575Z,24.69
2017-11-18T00:16:01.224Z,24.71
2017-11-18T00:16:13.840Z,24.66
2017-11-18T00:16:26.994Z,24.7
2017-11-18T00:16:39.615Z,24.74
2017-11-18T00:16:52.789Z,24.7
2017-11-18T00:17:05.892Z,24.71
2017-11-18T00:17:18.561Z,24.63
2017-11-18T00:17:31.655Z,24.63
2017-11-18T00:17:44.854Z,24.61
2017-11-18T00:17:58.051Z,24.74
2017-11-18T00:18:11.190Z,24.69
2017-11-18T00:18:24.329Z,24.67
2017-11-18T00:18:37.013Z,24.69
2017-11-18T00:18:49.668Z,24.56
2017-11-18T00:19:02.810Z,24.64
2017-11-18T00:19:15.488Z,24.66
2017-11-18T00:19:28.868Z,24.71
2017-11-18T00:19:41.511Z,24.7
2017-11-18T00:19:54.116Z,24.74
2017-11-18T00:20:06.771Z,24.69
2017-11-18T00:20:19.485Z,24.75
2017-11-18T00:20:32.650Z,24.56
2017-11-18T00:20:45.817Z,24.7
2017-11-18T00:20:58.963Z,24.74
2017-11-18T00:21:12.227Z,24.71
2017-11-18T00:21:25.407Z,24.67
2017-11-18T00:21:38.602Z,24.7
2017-11-18T00:21:51.820Z,24.69
2017-11-18T00:22:04.913Z,24.64
2017-11-18T00:22:18.098Z,24.67
2017-11-18T00:22:30.723Z,24.67
2017-11-18T00:22:42.878Z,24.7
2017-11-18T00:22:56.001Z,24.69
2017-11-18T00:23:09.145Z,24.67
2017-11-18T00:23:22.300Z,24.67
2017-11-18T00:23:35.429Z,24.59
2017-11-18T00:23:48.565Z,24.67
2017-11-18T00:24:01.722Z,24.64
2017-11-18T00:24:13.915Z,24.59
2017-11-18T00:24:26.117Z,24.66
2017-11-18T00:24:39.189Z,24.55
2017-11-18T00:24:52.360Z,24.51
2017-11-18T00:25:05.528Z,24.48
2017-11-18T00:25:18.670Z,24.52
2017-11-18T00:25:31.418Z,24.44
2017-11-18T00:25:44.556Z,24.49
2017-11-18T00:25:57.736Z,24.55
2017-11-18T00:26:10.408Z,24.58
2017-11-18T00:26:23.599Z,24.54
2017-11-18T00:26:36.715Z,24.55
2017-11-18T00:26:49.860Z,24.52
2017-11-18T00:27:02.918Z,24.51
2017-11-18T00:27:16.132Z,24.64
2017-11-18T00:27:29.321Z,24.56
2017-11-18T00:27:42.434Z,24.59
2017-11-18T00:27:55.571Z,24.61
2017-11-18T00:28:08.725Z,24.59
2017-11-18T00:28:21.383Z,24.67
2017-11-18T00:28:34.496Z,24.59
2017-11-18T00:28:47.610Z,24.63
2017-11-18T00:29:00.765Z,24.59
2017-11-18T00:29:13.931Z,24.61
2017-11-18T00:29:27.078Z,24.61
2017-11-18T00:29:40.303Z,24.54
2017-11-18T00:29:53.384Z,24.58
2017-11-18T00:30:06.602Z,24.48
2017-11-18T00:30:19.297Z,24.59
2017-11-18T00:30:32.410Z,24.56
2017-11-18T00:30:45.524Z,24.56
2017-11-18T00:30:58.657Z,24.59
2017-11-18T00:31:11.794Z,24.58
2017-11-18T00:31:24.899Z,24.56
2017-11-18T00:31:38.059Z,24.56
2017-11-18T00:31:51.220Z,24.58
2017-11-18T00:32:04.367Z,24.54
2017-11-18T00:32:17.577Z,24.59
2017-11-18T00:32:30.721Z,24.54
2017-11-18T00:32:43.777Z,24.54
2017-11-18T00:32:56.900Z,24.49
2017-11-18T00:33:10.070Z,24.48
2017-11-18T00:33:23.228Z,24.49
2017-11-18T00:33:35.866Z,24.56
2017-11-18T00:33:49.024Z,24.58
2017-11-18T00:34:02.164Z,24.58
2017-11-18T00:34:15.335Z,24.54
2017-11-18T00:34:28.444Z,24.51
2017-11-18T00:34:41.816Z,24.63
2017-11-18T00:34:55.027Z,24.64
2017-11-18T00:35:08.198Z,24.61
2017-11-18T00:35:20.877Z,24.52
2017-11-18T00:35:34.067Z,24.52
2017-11-18T00:35:47.242Z,24.63
2017-11-18T00:36:00.412Z,24.64
2017-11-18T00:36:13.540Z,24.66
2017-11-18T00:36:26.746Z,24.67
2017-11-18T00:36:39.350Z,24.71
2017-11-18T00:36:52.742Z,24.58
2017-11-18T00:37:05.902Z,24.64
2017-11-18T00:37:19.011Z,24.63
2017-11-18T00:37:32.144Z,24.71
2017-11-18T00:37:45.272Z,24.61
2017-11-18T00:37:58.421Z,24.59
2017-11-18T00:38:11.580Z,24.66
2017-11-18T00:38:24.926Z,24.67
2017-11-18T00:38:38.081Z,24.61
2017-11-18T00:38:51.230Z,24.66
2017-11-18T00:39:04.360Z,24.7
2017-11-18T00:39:17.045Z,24.64
2017-11-18T00:39:30.176Z,24.67
2017-11-18T00:39:43.392Z,24.67
2017-11-18T00:39:56.535Z,24.67
2017-11-18T00:40:09.172Z,24.66
2017-11-18T00:40:22.392Z,24.69
2017-11-18T00:40:35.484Z,24.64
2017-11-18T00:40:48.612Z,24.67
2017-11-18T00:41:01.256Z,24.63
2017-11-18T00:41:14.389Z,24.69
2017-11-18T00:41:27.719Z,24.59
2017-11-18T00:41:40.397Z,24.71
2017-11-18T00:41:53.475Z,24.59
2017-11-18T00:42:06.687Z,24.56
2017-11-18T00:42:19.843Z,24.46
2017-11-18T00:42:33.284Z,24.48
2017-11-18T00:42:46.452Z,24.48
2017-11-18T00:42:59.148Z,24.51
2017-11-18T00:43:11.835Z,24.48
2017-11-18T00:43:25.016Z,24.46
2017-11-18T00:43:38.203Z,24.58
2017-11-18T00:43:51.334Z,24.61
2017-11-18T00:44:04.068Z,24.49
2017-11-18T00:44:17.226Z,24.37
2017-11-18T00:44:30.365Z,24.34
2017-11-18T00:44:43.020Z,24.42
2017-11-18T00:44:56.144Z,24.37
2017-11-18T00:45:09.274Z,24.48
2017-11-18T00:45:22.445Z,24.46
2017-11-18T00:45:35.602Z,24.49
2017-11-18T00:45:48.242Z,24.46
2017-11-18T00:46:01.454Z,24.48
2017-11-18T00:46:13.626Z,24.45
2017-11-18T00:46:26.812Z,24.44
2017-11-18T00:46:39.981Z,24.49
2017-11-18T00:46:53.160Z,24.48
2017-11-18T00:47:06.286Z,24.48
2017-11-18T00:47:19.392Z,24.45
2017-11-18T00:47:32.523Z,24.39
2017-11-18T00:47:45.674Z,24.39
2017-11-18T00:47:58.815Z,24.37
2017-11-18T00:48:11.952Z,24.34
2017-11-18T00:48:25.087Z,24.45
2017-11-18T00:48:38.259Z,24.42
2017-11-18T00:48:51.417Z,24.33
2017-11-18T00:49:04.557Z,24.36
2017-11-18T00:49:17.675Z,24.49
2017-11-18T00:49:30.832Z,24.45
2017-11-18T00:49:44.179Z,24.44
2017-11-18T00:49:57.302Z,24.45
2017-11-18T00:50:09.935Z,24.51
2017-11-18T00:50:23.024Z,24.46
2017-11-18T00:50:36.125Z,24.46
2017-11-18T00:50:49.289Z,24.52
2017-11-18T00:51:02.478Z,24.55
2017-11-18T00:51:15.639Z,24.55
2017-11-18T00:51:28.769Z,24.58
2017-11-18T00:51:41.872Z,24.48
2017-11-18T00:51:54.985Z,24.4
2017-11-18T00:52:07.694Z,24.44
2017-11-18T00:52:20.805Z,24.36
2017-11-18T00:52:33.963Z,24.33
2017-11-18T00:52:46.186Z,24.39
2017-11-18T00:52:59.271Z,24.33
2017-11-18T00:53:12.396Z,24.34
2017-11-18T00:53:25.528Z,24.34
2017-11-18T00:53:38.726Z,24.33
2017-11-18T00:53:51.858Z,24.37
2017-11-18T00:54:04.553Z,24.39
2017-11-18T00:54:17.635Z,24.32
2017-11-18T00:54:30.848Z,24.34
2017-11-18T00:54:44.020Z,24.34
2017-11-18T00:54:57.138Z,24.37
2017-11-18T00:55:09.800Z,24.29
2017-11-18T00:55:22.927Z,24.27
2017-11-18T00:55:35.578Z,24.34
2017-11-18T00:55:48.741Z,24.33
2017-11-18T00:56:01.857Z,24.4
2017-11-18T00:56:14.460Z,24.32
2017-11-18T00:56:27.556Z,24.42
2017-11-18T00:56:40.172Z,24.42
2017-11-18T00:56:53.307Z,24.4
2017-11-18T00:57:05.942Z,24.44
2017-11-18T00:57:19.039Z,24.44
2017-11-18T00:57:32.232Z,24.49
2017-11-18T00:57:44.888Z,24.39
2017-11-18T00:57:57.996Z,24.44
2017-11-18T00:58:11.109Z,24.49
2017-11-18T00:58:24.234Z,24.45
2017-11-18T00:58:37.381Z,24.39
2017-11-18T00:58:50.576Z,24.39
2017-11-18T00:59:03.704Z,24.37
2017-11-18T00:59:16.341Z,24.49
2017-11-18T00:59:29.411Z,24.4
2017-11-18T00:59:42.183Z,24.33
2017-11-18T00:59:55.286Z,24.34
2017-11-18T01:00:08.416Z,24.39
2017-11-18T01:00:21.546Z,24.33
2017-11-18T01:00:34.703Z,24.37
2017-11-18T01:00:47.841Z,24.42
2017-11-18T01:01:00.501Z,24.37
2017-11-18T01:01:13.120Z,24.42
2017-11-18T01:01:26.251Z,24.48
2017-11-18T01:01:38.875Z,24.45
2017-11-18T01:01:52.014Z,24.44
2017-11-18T01:02:04.643Z,24.45
2017-11-18T01:02:17.313Z,24.45
2017-11-18T01:02:30.469Z,24.51
2017-11-18T01:02:43.588Z,24.46
2017-11-18T01:02:56.274Z,24.52
2017-11-18T01:03:08.850Z,24.51
2017-11-18T01:03:21.985Z,24.51
2017-11-18T01:03:35.131Z,24.46
2017-11-18T01:03:48.319Z,24.44
2017-11-18T01:04:01.442Z,24.45
2017-11-18T01:04:14.547Z,24.54
2017-11-18T01:04:27.696Z,24.48
2017-11-18T01:04:41.465Z,24.45
2017-11-18T01:04:54.127Z,24.51
2017-11-18T01:05:07.227Z,24.48
2017-11-18T01:05:20.365Z,24.44
2017-11-18T01:05:33.527Z,24.51
2017-11-18T01:05:46.676Z,24.45
2017-11-18T01:05:59.843Z,24.49
2017-11-18T01:06:13.047Z,24.46
2017-11-18T01:06:25.694Z,24.52
2017-11-18T01:06:38.828Z,24.45
2017-11-18T01:06:51.463Z,24.39
2017-11-18T01:07:04.573Z,24.4
2017-11-18T01:07:17.717Z,24.49
2017-11-18T01:07:30.838Z,24.4
2017-11-18T01:07:43.996Z,24.52
2017-11-18T01:07:57.152Z,24.51
2017-11-18T01:08:10.257Z,24.51
2017-11-18T01:08:22.928Z,24.48
2017-11-18T01:08:36.095Z,24.51
2017-11-18T01:08:49.276Z,24.44
2017-11-18T01:09:02.455Z,24.49
2017-11-18T01:09:15.135Z,24.4
2017-11-18T01:09:28.290Z,24.3
2017-11-18T01:09:41.487Z,24.32
2017-11-18T01:09:54.191Z,24.36
2017-11-18T01:10:07.334Z,24.4
2017-11-18T01:10:19.467Z,24.42
2017-11-18T01:10:32.107Z,24.39
2017-11-18T01:10:45.301Z,24.42
2017-11-18T01:10:57.931Z,24.46
2017-11-18T01:11:10.159Z,24.45
2017-11-18T01:11:23.325Z,24.45
2017-11-18T01:11:36.391Z,24.39
2017-11-18T01:11:49.521Z,24.39
2017-11-18T01:12:02.656Z,24.46
2017-11-18T01:12:15.339Z,24.46
2017-11-18T01:12:28.455Z,24.48
2017-11-18T01:12:40.692Z,24.34
2017-11-18T01:12:53.873Z,24.48
2017-11-18T01:13:07.037Z,24.36
2017-11-18T01:13:20.203Z,24.42
2017-11-18T01:13:33.399Z,24.37
2017-11-18T01:13:46.583Z,24.52
2017-11-18T01:13:59.266Z,24.48
2017-11-18T01:14:12.424Z,24.55
2017-11-18T01:14:25.544Z,24.48
2017-11-18T01:14:38.199Z,24.48
2017-11-18T01:14:51.629Z,24.44
2017-11-18T01:15:04.782Z,24.51
2017-11-18T01:15:18.000Z,24.45
2017-11-18T01:15:31.155Z,24.4
2017-11-18T01:15:43.813Z,24.36
2017-11-18T01:15:56.927Z,24.4
2017-11-18T01:16:10.055Z,24.4
2017-11-18T01:16:23.211Z,24.33
2017-11-18T01:16:35.856Z,24.39
2017-11-18T01:16:49.047Z,24.46
2017-11-18T01:17:02.191Z,24.46
2017-11-18T01:17:15.300Z,24.48
2017-11-18T01:17:28.483Z,24.45
2017-11-18T01:17:41.614Z,24.42
2017-11-18T01:17:54.819Z,24.37
2017-11-18T01:18:08.002Z,24.44
2017-11-18T01:18:20.667Z,24.46
2017-11-18T01:18:33.840Z,24.49
2017-11-18T01:18:46.005Z,24.49
2017-11-18T01:18:59.146Z,24.45
2017-11-18T01:19:12.245Z,24.52
2017-11-18T01:19:25.321Z,24.49
2017-11-18T01:19:38.477Z,24.58
2017-11-18T01:19:52.279Z,24.58
2017-11-18T01:20:05.440Z,24.55
2017-11-18T01:20:18.575Z,24.59
2017-11-18T01:20:31.192Z,24.56
2017-11-18T01:20:43.373Z,24.55
2017-11-18T01:20:56.471Z,24.46
2017-11-18T01:21:09.661Z,24.44
2017-11-18T01:21:22.820Z,24.46
2017-11-18T01:21:35.942Z,24.56
2017-11-18T01:21:48.635Z,24.45
2017-11-18T01:22:01.306Z,24.59
2017-11-18T01:22:14.472Z,24.52
2017-11-18T01:22:27.623Z,24.59
2017-11-18T01:22:40.867Z,24.66
2017-11-18T01:22:53.995Z,24.64
2017-11-18T01:23:07.115Z,24.64
2017-11-18T01:23:20.257Z,24.56
2017-11-18T01:23:33.394Z,24.75
2017-11-18T01:23:46.559Z,24.59
2017-11-18T01:23:59.182Z,24.69
2017-11-18T01:24:11.845Z,24.66
2017-11-18T01:24:24.995Z,24.64
2017-11-18T01:24:38.097Z,24.67
2017-11-18T01:24:51.252Z,24.69
2017-11-18T01:25:04.411Z,24.64
2017-11-18T01:25:17.006Z,24.69
2017-11-18T01:25:29.658Z,24.67
2017-11-18T01:25:42.314Z,24.74
2017-11-18T01:25:55.518Z,24.69
2017-11-18T01:26:08.647Z,24.63
2017-11-18T01:26:21.841Z,24.63
2017-11-18T01:26:34.981Z,24.78
2017-11-18T01:26:48.129Z,24.71
2017-11-18T01:27:01.278Z,24.59
2017-11-18T01:27:13.964Z,24.66
2017-11-18T01:27:27.096Z,24.66
2017-11-18T01:27:40.213Z,24.66
2017-11-18T01:27:53.330Z,24.69
2017-11-18T01:28:06.520Z,24.74
2017-11-18T01:28:19.613Z,24.71
2017-11-18T01:28:32.743Z,24.71
2017-11-18T01:28:45.927Z,24.69
2017-11-18T01:28:59.076Z,24.67
2017-11-18T01:29:12.256Z,24.7
2017-11-18T01:29:25.383Z,24.64
2017-11-18T01:29:37.986Z,24.66
2017-11-18T01:29:51.232Z,24.59
2017-11-18T01:30:04.351Z,24.66
2017-11-18T01:30:17.541Z,24.78
2017-11-18T01:30:30.682Z,24.7
2017-11-18T01:30:43.305Z,24.59
2017-11-18T01:30:56.509Z,24.66
2017-11-18T01:31:09.587Z,24.69
2017-11-18T01:31:22.229Z,24.67
2017-11-18T01:31:35.369Z,24.67
2017-11-18T01:31:48.457Z,24.67
2017-11-18T01:32:01.550Z,24.75
2017-11-18T01:32:14.755Z,24.7
2017-11-18T01:32:27.915Z,24.66
2017-11-18T01:32:41.069Z,24.74
2017-11-18T01:32:54.202Z,24.7
2017-11-18T01:33:06.857Z,24.78
2017-11-18T01:33:19.993Z,24.69
2017-11-18T01:33:33.156Z,24.7
2017-11-18T01:33:45.375Z,24.8
2017-11-18T01:33:58.032Z,24.69
2017-11-18T01:34:10.689Z,24.69
2017-11-18T01:34:23.880Z,24.7
2017-11-18T01:34:36.552Z,24.74
2017-11-18T01:34:49.208Z,24.74
2017-11-18T01:35:03.109Z,24.69
2017-11-18T01:35:15.695Z,24.67
2017-11-18T01:35:28.910Z,24.69
2017-11-18T01:35:42.032Z,24.69
2017-11-18T01:35:55.142Z,24.83
2017-11-18T01:36:08.263Z,24.77
2017-11-18T01:36:20.888Z,24.74
2017-11-18T01:36:34.062Z,24.78
2017-11-18T01:36:47.178Z,24.83
2017-11-18T01:37:00.365Z,24.82
2017-11-18T01:37:13.040Z,24.89
2017-11-18T01:37:26.173Z,24.82
2017-11-18T01:37:39.243Z,24.86
2017-11-18T01:37:52.421Z,24.66
2017-11-18T01:38:05.539Z,24.61
2017-11-18T01:38:18.676Z,24.51
2017-11-18T01:38:31.879Z,24.52
2017-11-18T01:38:44.993Z,24.44
2017-11-18T01:38:58.105Z,24.46
2017-11-18T01:39:11.295Z,24.46
2017-11-18T01:39:24.418Z,24.34
2017-11-18T01:39:36.609Z,24.39
2017-11-18T01:39:49.685Z,24.4
2017-11-18T01:40:02.871Z,24.34
2017-11-18T01:40:15.070Z,24.39
2017-11-18T01:40:28.246Z,24.39
2017-11-18T01:40:41.397Z,24.32
2017-11-18T01:40:54.060Z,24.36
2017-11-18T01:41:07.213Z,24.34
2017-11-18T01:41:20.377Z,24.54
2017-11-18T01:41:33.562Z,24.67
2017-11-18T01:41:46.730Z,24.64
2017-11-18T01:41:59.867Z,24.64
2017-11-18T01:42:12.988Z,24.61
2017-11-18T01:42:25.681Z,24.64
2017-11-18T01:42:38.382Z,24.61
2017-11-18T01:42:51.492Z,24.63
2017-11-18T01:43:04.642Z,24.63
2017-11-18T01:43:17.784Z,24.69
2017-11-18T01:43:30.969Z,24.52
2017-11-18T01:43:43.632Z,24.64
2017-11-18T01:43:56.766Z,24.66
2017-11-18T01:44:09.959Z,24.49
2017-11-18T01:44:23.089Z,24.59
2017-11-18T01:44:36.250Z,24.48
2017-11-18T01:44:49.388Z,24.56
2017-11-18T01:45:02.830Z,24.54
2017-11-18T01:45:15.939Z,24.49
2017-11-18T01:45:29.121Z,24.46
2017-11-18T01:45:42.289Z,24.46
2017-11-18T01:45:55.483Z,24.45
2017-11-18T01:46:08.656Z,24.49
2017-11-18T01:46:21.824Z,24.51
2017-11-18T01:46:34.998Z,24.55
2017-11-18T01:46:48.158Z,24.56
2017-11-18T01:47:01.285Z,24.56
2017-11-18T01:47:14.370Z,24.52
2017-11-18T01:47:26.572Z,24.45
2017-11-18T01:47:39.765Z,24.63
2017-11-18T01:47:52.834Z,24.49
2017-11-18T01:48:05.998Z,24.61
2017-11-18T01:48:19.146Z,24.54
2017-11-18T01:48:32.272Z,24.61
2017-11-18T01:48:45.401Z,24.58
2017-11-18T01:48:58.553Z,24.64
2017-11-18T01:49:11.760Z,24.59
2017-11-18T01:49:24.878Z,24.63
2017-11-18T01:49:37.991Z,24.67
2017-11-18T01:49:50.655Z,24.61
2017-11-18T01:50:04.533Z,24.61
2017-11-18T01:50:17.677Z,24.63
2017-11-18T01:50:30.879Z,24.56
2017-11-18T01:50:43.564Z,24.52
2017-11-18T01:50:56.742Z,24.48
2017-11-18T01:51:09.861Z,24.54
2017-11-18T01:51:22.504Z,24.58
2017-11-18T01:51:35.628Z,24.51
2017-11-18T01:51:48.754Z,24.42
2017-11-18T01:52:03.314Z,24.48
2017-11-18T01:52:16.454Z,24.46
2017-11-18T01:52:29.617Z,24.52
2017-11-18T01:52:42.739Z,24.52
2017-11-18T01:52:55.913Z,24.56
2017-11-18T01:53:09.085Z,24.56
2017-11-18T01:53:22.235Z,24.56
2017-11-18T01:53:34.887Z,24.56
2017-11-18T01:53:48.041Z,24.58
2017-11-18T01:54:01.186Z,24.52
2017-11-18T01:54:14.366Z,24.54
2017-11-18T01:54:27.493Z,24.48
2017-11-18T01:54:40.662Z,24.46
2017-11-18T01:54:53.782Z,24.49
2017-11-18T01:55:06.899Z,24.44
2017-11-18T01:55:19.587Z,24.48
2017-11-18T01:55:32.257Z,24.42
2017-11-18T01:55:45.441Z,24.46
2017-11-18T01:55:58.641Z,24.46
2017-11-18T01:56:11.738Z,24.48
2017-11-18T01:56:24.894Z,24.51
2017-11-18T01:56:38.066Z,24.48
2017-11-18T01:56:50.778Z,24.45
2017-11-18T01:57:03.920Z,24.52
2017-11-18T01:57:17.015Z,24.48
2017-11-18T01:57:30.195Z,24.51
2017-11-18T01:57:43.349Z,24.48
2017-11-18T01:57:56.492Z,24.54
2017-11-18T01:58:09.148Z,24.51
2017-11-18T01:58:22.342Z,24.58
2017-11-18T01:58:35.477Z,24.58
2017-11-18T01:58:48.148Z,24.63
2017-11-18T01:59:00.792Z,24.58
2017-11-18T01:59:13.910Z,24.64
2017-11-18T01:59:27.001Z,24.59
2017-11-18T01:59:39.684Z,24.61
2017-11-18T01:59:52.810Z,24.64
2017-11-18T02:00:05.548Z,24.61
2017-11-18T02:00:18.230Z,24.64
2017-11-18T02:00:31.440Z,24.63
2017-11-18T02:00:44.178Z,24.67
2017-11-18T02:00:57.326Z,24.78
2017-11-18T02:01:09.995Z,24.7
2017-11-18T02:01:23.156Z,24.61
2017-11-18T02:01:36.319Z,24.64
2017-11-18T02:01:49.470Z,24.66
2017-11-18T02:02:02.584Z,24.64
2017-11-18T02:02:15.227Z,24.64
2017-11-18T02:02:28.355Z,24.64
2017-11-18T02:02:41.512Z,24.61
2017-11-18T02:02:54.710Z,24.69
2017-11-18T02:03:07.840Z,24.67
2017-11-18T02:03:20.946Z,24.66
2017-11-18T02:03:34.101Z,24.66
2017-11-18T02:03:47.194Z,24.71
2017-11-18T02:04:00.352Z,24.7
2017-11-18T02:04:12.976Z,24.69
2017-11-18T02:04:26.139Z,24.78
2017-11-18T02:04:39.329Z,24.7
2017-11-18T02:04:52.446Z,24.67
2017-11-18T02:05:05.861Z,24.74
2017-11-18T02:05:30.261Z,24.7
2017-11-18T02:05:43.355Z,24.67
2017-11-18T02:05:56.497Z,24.67
2017-11-18T02:06:09.594Z,24.71
2017-11-18T02:06:22.713Z,24.66
2017-11-18T02:06:35.889Z,24.69
2017-11-18T02:06:49.022Z,24.56
2017-11-18T02:07:02.177Z,24.7
2017-11-18T02:07:15.297Z,24.63
2017-11-18T02:07:28.420Z,24.7
2017-11-18T02:07:41.631Z,24.71
2017-11-18T02:07:54.817Z,24.66
2017-11-18T02:08:07.980Z,24.71
2017-11-18T02:08:21.100Z,24.69
2017-11-18T02:08:34.220Z,24.69
2017-11-18T02:08:47.357Z,24.67
2017-11-18T02:09:00.594Z,24.64
2017-11-18T02:09:13.745Z,24.66
2017-11-18T02:09:26.885Z,24.64
2017-11-18T02:09:39.468Z,24.61
2017-11-18T02:09:51.678Z,24.61
2017-11-18T02:10:04.802Z,24.61
2017-11-18T02:10:17.958Z,24.52
2017-11-18T02:10:31.030Z,24.59
2017-11-18T02:10:43.670Z,24.66
2017-11-18T02:10:56.326Z,24.61
2017-11-18T02:11:09.509Z,24.69
2017-11-18T02:11:22.691Z,24.61
2017-11-18T02:11:35.322Z,24.69
2017-11-18T02:11:47.996Z,24.67
2017-11-18T02:12:01.205Z,24.58
2017-11-18T02:12:14.505Z,24.52
2017-11-18T02:12:27.606Z,24.52
2017-11-18T02:12:40.688Z,24.63
2017-11-18T02:12:53.823Z,24.61
2017-11-18T02:13:06.965Z,24.61
2017-11-18T02:13:20.037Z,24.64
2017-11-18T02:13:33.204Z,24.61
2017-11-18T02:13:46.368Z,24.7
2017-11-18T02:13:59.415Z,24.67
2017-11-18T02:14:12.009Z,24.64
2017-11-18T02:14:25.139Z,24.58
2017-11-18T02:14:38.258Z,24.59
2017-11-18T02:14:51.302Z,24.61
2017-11-18T02:15:04.477Z,24.58
2017-11-18T02:15:17.924Z,24.61
2017-11-18T02:15:31.127Z,24.59
2017-11-18T02:15:44.244Z,24.54
2017-11-18T02:15:57.332Z,24.58
2017-11-18T02:16:10.406Z,24.64
2017-11-18T02:16:22.614Z,24.64
2017-11-18T02:16:35.270Z,24.63
2017-11-18T02:16:48.420Z,24.64
2017-11-18T02:17:01.646Z,24.64
2017-11-18T02:17:14.812Z,24.63
2017-11-18T02:17:27.995Z,24.46
2017-11-18T02:17:40.657Z,24.56
2017-11-18T02:17:53.790Z,24.56
2017-11-18T02:18:06.489Z,24.59
2017-11-18T02:18:19.589Z,24.59
2017-11-18T02:18:32.700Z,24.52
2017-11-18T02:18:45.862Z,24.51
2017-11-18T02:18:58.952Z,24.61
2017-11-18T02:19:12.093Z,24.61
2017-11-18T02:19:25.231Z,24.54
2017-11-18T02:19:38.385Z,24.55
2017-11-18T02:19:51.499Z,24.49
2017-11-18T02:20:04.582Z,24.45
2017-11-18T02:20:18.450Z,24.48
2017-11-18T02:20:31.593Z,24.51
2017-11-18T02:20:44.730Z,24.48
2017-11-18T02:20:57.866Z,24.44
2017-11-18T02:21:10.529Z,24.51
2017-11-18T02:21:23.591Z,24.52
2017-11-18T02:21:36.742Z,24.49
2017-11-18T02:21:49.838Z,24.46
2017-11-18T02:22:03.006Z,24.51
2017-11-18T02:22:16.145Z,24.48
2017-11-18T02:22:29.278Z,24.46
2017-11-18T02:22:42.417Z,24.44
2017-11-18T02:22:55.588Z,24.4
2017-11-18T02:23:08.324Z,24.45
2017-11-18T02:23:21.491Z,24.49
2017-11-18T02:23:34.134Z,24.54
2017-11-18T02:23:47.307Z,24.54
2017-11-18T02:23:59.957Z,24.55
2017-11-18T02:24:12.660Z,24.56
2017-11-18T02:24:25.324Z,24.56
2017-11-18T02:24:38.440Z,24.55
2017-11-18T02:24:51.584Z,24.59
2017-11-18T02:25:04.225Z,24.58
2017-11-18T02:25:17.385Z,24.51
2017-11-18T02:25:30.487Z,24.59
2017-11-18T02:25:43.666Z,24.66
2017-11-18T02:25:56.867Z,24.58
2017-11-18T02:26:09.562Z,24.56
2017-11-18T02:26:22.744Z,24.64
2017-11-18T02:26:35.857Z,24.64
2017-11-18T02:26:49.026Z,24.61
2017-11-18T02:27:02.166Z,24.64
2017-11-18T02:27:15.289Z,24.59
2017-11-18T02:27:28.397Z,24.59
2017-11-18T02:27:41.541Z,24.49
2017-11-18T02:27:54.745Z,24.56
2017-11-18T02:28:07.867Z,24.48
2017-11-18T02:28:20.996Z,24.58
2017-11-18T02:28:34.174Z,24.59
2017-11-18T02:28:47.345Z,24.58
2017-11-18T02:29:06.774Z,24.56
2017-11-18T02:29:19.888Z,24.58
2017-11-18T02:29:32.993Z,24.56
2017-11-18T02:29:45.637Z,24.56
2017-11-18T02:29:58.758Z,24.55
2017-11-18T02:30:11.900Z,24.56
2017-11-18T02:30:25.170Z,24.55
2017-11-18T02:30:38.289Z,24.55
2017-11-18T02:30:51.491Z,24.54
2017-11-18T02:31:04.617Z,24.59
2017-11-18T02:31:17.737Z,24.48
2017-11-18T02:31:30.889Z,24.48
2017-11-18T02:31:44.032Z,24.45
2017-11-18T02:31:56.688Z,24.49
2017-11-18T02:32:09.344Z,24.49
2017-11-18T02:32:22.034Z,24.46
2017-11-18T02:32:34.141Z,24.48
2017-11-18T02:32:47.250Z,24.36
2017-11-18T02:33:00.353Z,24.4
2017-11-18T02:33:13.456Z,24.37
2017-11-18T02:33:26.572Z,24.36
2017-11-18T02:33:39.192Z,24.4
2017-11-18T02:33:52.347Z,24.39
2017-11-18T02:34:05.440Z,24.36
2017-11-18T02:34:18.572Z,24.26
2017-11-18T02:34:31.694Z,24.34
2017-11-18T02:34:44.830Z,24.29
2017-11-18T02:34:56.991Z,24.32
2017-11-18T02:35:10.127Z,24.39
2017-11-18T02:35:23.967Z,24.44
2017-11-18T02:35:37.128Z,24.37
2017-11-18T02:35:50.261Z,24.4
2017-11-18T02:36:03.470Z,24.39
2017-11-18T02:36:16.108Z,24.42
2017-11-18T02:36:29.295Z,24.44
2017-11-18T02:36:42.411Z,24.4
2017-11-18T02:36:55.484Z,24.34
2017-11-18T02:37:08.633Z,24.33
2017-11-18T02:37:21.280Z,24.36
2017-11-18T02:37:34.459Z,24.37
2017-11-18T02:37:47.082Z,24.36
2017-11-18T02:38:00.196Z,24.39
2017-11-18T02:38:13.332Z,24.36
2017-11-18T02:38:26.447Z,24.37
2017-11-18T02:38:39.068Z,24.44
2017-11-18T02:38:52.211Z,24.37
2017-11-18T02:39:05.340Z,24.36
2017-11-18T02:39:18.018Z,24.32
2017-11-18T02:39:31.187Z,24.42
2017-11-18T02:39:44.347Z,24.44
2017-11-18T02:39:57.578Z,24.49
2017-11-18T02:40:10.772Z,24.46
2017-11-18T02:40:23.930Z,24.48
2017-11-18T02:40:36.629Z,24.52
2017-11-18T02:40:49.790Z,24.52
2017-11-18T02:41:02.895Z,24.61
2017-11-18T02:41:16.046Z,24.64
2017-11-18T02:41:29.221Z,24.61
2017-11-18T02:41:42.351Z,24.7
2017-11-18T02:41:55.466Z,24.66
2017-11-18T02:42:08.647Z,24.67
2017-11-18T02:42:21.817Z,24.64
2017-11-18T02:42:34.945Z,24.67
2017-11-18T02:42:48.151Z,24.7
2017-11-18T02:43:01.340Z,24.63
2017-11-18T02:43:14.506Z,24.63
2017-11-18T02:43:27.639Z,24.66
2017-11-18T02:43:40.304Z,24.63
2017-11-18T02:43:53.430Z,24.56
2017-11-18T02:44:06.581Z,24.59
2017-11-18T02:44:19.722Z,24.66
2017-11-18T02:44:32.891Z,24.61
2017-11-18T02:44:46.071Z,24.64
2017-11-18T02:44:59.255Z,24.66
2017-11-18T02:45:12.423Z,24.63
2017-11-18T02:45:25.333Z,24.59
2017-11-18T02:45:38.020Z,24.69
2017-11-18T02:45:51.097Z,24.67
2017-11-18T02:46:04.283Z,24.64
2017-11-18T02:46:17.494Z,24.69
2017-11-18T02:46:30.620Z,24.7
2017-11-18T02:46:43.312Z,24.7
2017-11-18T02:46:55.968Z,24.66
2017-11-18T02:47:09.100Z,24.71
2017-11-18T02:47:22.272Z,24.75
2017-11-18T02:47:35.373Z,24.69
2017-11-18T02:47:48.488Z,24.59
2017-11-18T02:48:01.640Z,24.64
2017-11-18T02:48:14.769Z,24.71
2017-11-18T02:48:27.902Z,24.66
2017-11-18T02:48:40.618Z,24.66